Phoenix-Mesa-Gateway Airport
KIWA : now visible

Airfield :











YOU CAN JOIN US ON...

 
LOGIN :

Register | Disclaimer

   EN    FR    IT 

 









Legend :    VFR   Marginal VFR   IFR   Intensive IFR   Very Intensive IFR
Visi :
Ceiling :
>= 8 km
>= 3000ft
5 to 8 km
1000 to 3000 ft
1500m to 5 km
500 to 1000 ft
800 to 1500m
200 to 500 ft
< 800m
< 200 ft
Symbols :   Thunderstorms  Fog  Heavy snow  Heavy precipitations  Wind > 20 kt






- Airport Elevation : 1382 ft


KIWA - Phoenix-Mesa-Gateway

CURRENT METAR :
  • 090150Z 35013KT 10SM VCPO FEW150 41/10 A2972

EXPIRED METARs :
  • 090047Z 32009KT 10SM FEW150 42/10 A2972
  • 082347Z 30005KT 10SM FEW150 42/11 A2973

TAF KIWA
Valid from the 09 at 00:00 until the 10 at 00:00 UTC


082322Z 0900/0924 27011G17KT P6SM FEW120
FM090200 28006KT P6SM SKC
FM090800 11006KT P6SM SKC
FM091800 24006KT P6SM FEW120
FM092300 28010G16KT P6SM FEW120
KZAB FIR / North America



MET'MAP, your aeronautical weather chart ! - Copyright ORBIFLY December 2007 - Disclaimer

ORBIFLY MET'MAP TEAM :

Programming & Development : Alexandra Zaïnal
Concept & original design : Baudouin d'Aumeries
Assistance for programming : Marc-Olivier Méhu
Technical & hardware support : Manuel Goepfert

Contact : metmap@orbifly.com




SOURCES & CREDITS :

   NOAA       Earth
Advisory